Аэропорт: Аулие-Ата. Тараз

ICAO: UADD

METAR:
2024-04-22 21:00:00
UADD 222100Z 19002MPS 9999 BKN050CB OVC100 15/12 Q1014 NOSIG RMK QFE704/0939
TAF:
2024-04-22 17:01:00
TAF UADD 221701Z 2218/2318 32003G08MPS 9999 SCT050CB OVC100 TX24/2310Z TN10/2223Z 
  TEMPO 2218/2305 16004MPS 
  TEMPO 2305/2312 VRB12MPS -TSRA BKN020CB 
  TEMPO 2312/2318 20004MPS